YBR weather

Brandon Municipal Airport
Brandon, Manitoba, Canada

Public forecast

Using degrees Celsius for public forecast. Weather courtesy of forecast.io.

Current aviation weather report (METAR) for Brandon Municipal Airport

Retrieved 2019/10/22 13:00 UTC (19 minutes ago):

CYBR 221300Z 34008KT 15SM FEW064 FEW250 M01/M04 A2984 RMK SC1CI1 SC TR CI TR SLP130

Aviation forecast (TAF) for Brandon Municipal Airport

Retrieved 2019/10/22 12:39 UTC (40 minutes ago):

TAF CYBR 221138Z 2212/2224 34012KT P6SM SCT060 TEMPO 2212/2217 BKN060 FM221700 34018G28KT P6SM SCT040 BECMG 2222/2224 35010KT RMK NXT FCST BY 221800Z